Terminal Aerodrome Forecast
Issued by NWS Charleston, WV

Current Version | Previous Version | Text Only | Print | Product List | Glossary Off
Versions: 1 2 3 4 5 6 7 8 9 10 11 12 13 14 15 16 17 18 19

000
FTUS41 KRLX 231100
TAFPKB
TAF
KPKB 231133Z 2312/2412 23005KT P6SM SCT050 BKN080
     FM231400 24007KT P6SM VCTS BKN040CB BKN080
     FM231700 27007KT 4SM TSRA BR BKN030CB
     FM232300 33005KT 4SM -SHRA BR BKN024
     FM240300 36005KT 6SM BR BKN020
     FM240700 34005KT P6SM BKN025
     FM241100 34006KT P6SM BKN035
      AMD NOT SKED=

USA.gov is the U.S. government's official web portal to all federal, state and local government web resources and services.